Staunton, VA

1:53 PM EDT on August 17, 2017 (GMT -0400)
Shenandoah Valley Regional

Weather History for KSHD - May, 2014

Change the Weather History Date:

Sunday, May 25, 2014

  Actual Average Record
Temperature  
Mean Temperature 60 °F -  
Max Temperature 77 °F 75 °F 87 °F (2004)
Min Temperature 44 °F 52 °F 35 °F (2013)
Degree Days  
Heating Degree Days 4    
Growing Degree Days 10 (Base 50)    
Moisture  
Dew Point 47 °F    
Average Humidity 62    
Maximum Humidity 93    
Minimum Humidity 30    
Precipitation  
Precipitation 0.00 in - - ()
Sea Level Pressure  
Sea Level Pressure 30.18 in    
Wind  
Wind Speed 1 mph (South)    
Max Wind Speed 8 mph    
Max Gust Speed -    
Visibility 10 miles    
Events      
Averages and records for this station are not official NWS values.
T = Trace of Precipitation, MM = Missing Value Source: NWS Daily Summary

Daily Weather History Graph

Daily Weather History Graph

Search for Another Location

Airport or City:

Trip Planner

Search our weather history database for the weather conditions in past years. The results will help you decide how hot, cold, wet, or windy it might be!

Date:

Astronomy

May. 25, 2014 Rise Set
Actual Time 5:57 AM EDT 8:28 PM EDT
Civil Twilight 5:26 AM EDT 8:58 PM EDT
Nautical Twilight 4:49 AM EDT 9:36 PM EDT
Astronomical Twilight 4:07 AM EDT 10:18 PM EDT
Moon 3:57 AM EDT (5/25) 5:29 PM EDT (5/25)
Length of Visible Light 15h 31m
Length of Day
14h 30m
Waning Crescent, 10% of the Moon is Illuminated
May 25
Waning Crescent
May 28
New
Jun 5
First Quarter
Jun 13
Full
Jun 19
Last Quarter

Hourly Weather History & Observations

Time (EDT) Temp. Dew Point Humidity Pressure Visibility Wind Dir Wind Speed Gust Speed Precip Events Conditions
12:15 AM 52.2 °F 47.5 °F 84% 30.19 in 10.0 mi Calm Calm - N/A   Clear
12:35 AM 51.6 °F 47.8 °F 87% 30.19 in 10.0 mi Calm Calm - N/A   Clear
12:55 AM 51.4 °F 47.7 °F 87% 30.19 in 10.0 mi Calm Calm - N/A   Clear
1:15 AM 50.5 °F 46.4 °F 86% 30.19 in 10.0 mi SE 4.6 mph - N/A   Clear
1:35 AM 51.8 °F 48.2 °F 88% 30.19 in 10.0 mi Calm Calm - N/A   Clear
1:55 AM 50.7 °F 47.1 °F 87% 30.19 in 10.0 mi Calm Calm - N/A   Clear
2:15 AM 50.5 °F 46.9 °F 87% 30.18 in 10.0 mi Calm Calm - N/A   Clear
2:35 AM 49.6 °F 46.6 °F 89% 30.18 in 10.0 mi Calm Calm - N/A   Clear
2:55 AM 50.4 °F 47.3 °F 89% 30.17 in 10.0 mi Calm Calm - N/A   Clear
3:15 AM 48.4 °F 45.3 °F 89% 30.17 in 10.0 mi Calm Calm - N/A   Clear
3:35 AM 46.9 °F 43.9 °F 89% 30.17 in 7.0 mi Calm Calm - N/A   Clear
3:55 AM 48.2 °F 45.7 °F 91% 30.17 in 10.0 mi Calm Calm - N/A   Clear
4:15 AM 47.7 °F 45.3 °F 92% 30.18 in 7.0 mi Calm Calm - N/A   Clear
4:35 AM 47.1 °F 44.4 °F 90% 30.18 in 10.0 mi Calm Calm - N/A   Clear
4:55 AM 46.8 °F 44.2 °F 91% 30.19 in 10.0 mi Calm Calm - N/A   Clear
5:15 AM 46.2 °F 43.7 °F 91% 30.19 in 10.0 mi Calm Calm - N/A   Clear
5:35 AM 45.7 °F 43.3 °F 92% 30.19 in 5.0 mi Calm Calm - N/A   Clear
5:55 AM 44.8 °F 42.3 °F 91% 30.20 in 7.0 mi Calm Calm - N/A   Clear
6:15 AM 45.7 °F 43.7 °F 93% 30.20 in 5.0 mi Calm Calm - N/A   Clear
6:35 AM 45.7 °F 43.7 °F 93% 30.20 in 10.0 mi Calm Calm - N/A   Clear
6:55 AM 47.3 °F 45.0 °F 92% 30.21 in 10.0 mi Calm Calm - N/A   Clear
7:15 AM 49.3 °F 46.8 °F 91% 30.22 in 10.0 mi Calm Calm - N/A   Clear
7:35 AM 51.1 °F 48.2 °F 90% 30.22 in 10.0 mi Calm Calm - N/A   Clear
7:55 AM 53.6 °F 48.7 °F 84% 30.22 in 10.0 mi Calm Calm - N/A   Clear
8:15 AM 55.9 °F 48.4 °F 76% 30.23 in 10.0 mi Calm Calm - N/A   Clear
8:35 AM 57.9 °F 49.1 °F 72% 30.23 in 10.0 mi Calm Calm - N/A   Clear
8:55 AM 60.6 °F 50.4 °F 69% 30.23 in 10.0 mi Calm Calm - N/A   Clear
9:15 AM 63.0 °F 50.9 °F 65% 30.24 in 10.0 mi Calm Calm - N/A   Clear
9:35 AM 64.8 °F 49.8 °F 58% 30.24 in 10.0 mi Calm Calm - N/A   Clear
10:15 AM 68.0 °F 48.9 °F 50% 30.24 in 10.0 mi Calm Calm - N/A   Clear
10:55 AM 70.3 °F 46.6 °F 43% 30.23 in 10.0 mi Calm Calm - N/A   Clear
11:15 AM 71.1 °F 45.5 °F 40% 30.23 in 10.0 mi Calm Calm - N/A   Clear
11:35 AM 71.8 °F 41.9 °F 34% 30.23 in 10.0 mi Calm Calm - N/A   Clear
11:55 AM 73.0 °F 43.0 °F 34% 30.22 in 10.0 mi Calm Calm - N/A   Clear
12:15 PM 73.8 °F 43.2 °F 33% 30.22 in 10.0 mi ESE 4.6 mph - N/A   Clear
12:55 PM 73.9 °F 42.3 °F 32% 30.21 in 10.0 mi SE 3.5 mph - N/A   Clear
1:15 PM 75.2 °F 44.6 °F 34% 30.20 in 10.0 mi SW 4.6 mph - N/A   Clear
1:35 PM 74.3 °F 43.0 °F 33% 30.19 in 10.0 mi Calm Calm - N/A   Clear
1:55 PM 74.5 °F 42.8 °F 32% 30.19 in 10.0 mi Calm Calm - N/A   Scattered Clouds
2:15 PM 75.9 °F 44.1 °F 32% 30.19 in 10.0 mi Calm Calm - N/A   Scattered Clouds
2:55 PM 77.0 °F 44.6 °F 32% 30.18 in 10.0 mi SSW 3.5 mph - N/A   Scattered Clouds
3:15 PM 76.1 °F 45.0 °F 33% 30.17 in 10.0 mi South 5.8 mph - N/A   Scattered Clouds
3:35 PM 76.1 °F 43.5 °F 31% 30.17 in 10.0 mi Calm Calm - N/A   Clear
3:55 PM 77.0 °F 45.3 °F 32% 30.16 in 10.0 mi WSW 5.8 mph - N/A   Clear
4:15 PM 77.5 °F 45.5 °F 32% 30.16 in 10.0 mi South 5.8 mph - N/A   Clear
4:35 PM 77.5 °F 46.0 °F 33% 30.15 in 10.0 mi WSW 3.5 mph - N/A   Clear
4:55 PM 77.5 °F 44.1 °F 30% 30.15 in 10.0 mi SSW 8.1 mph - N/A   Clear
5:15 PM 77.5 °F 44.2 °F 31% 30.14 in 10.0 mi South 3.5 mph - N/A   Clear
5:35 PM 77.7 °F 45.0 °F 31% 30.14 in 10.0 mi South 5.8 mph - N/A   Clear
5:55 PM 77.7 °F 44.8 °F 31% 30.14 in 10.0 mi Calm Calm - N/A   Clear
6:15 PM 77.2 °F 44.8 °F 32% 30.13 in 10.0 mi SSE 5.8 mph - N/A   Clear
6:35 PM 77.0 °F 46.4 °F 34% 30.13 in 10.0 mi South 4.6 mph - N/A   Clear
6:55 PM 76.5 °F 47.3 °F 36% 30.13 in 10.0 mi SSE 6.9 mph - N/A   Clear
7:15 PM 75.4 °F 48.9 °F 39% 30.13 in 10.0 mi SSE 5.8 mph - N/A   Clear
7:35 PM 74.3 °F 49.8 °F 42% 30.14 in 10.0 mi SSE 4.6 mph - N/A   Clear
7:55 PM 72.9 °F 50.7 °F 46% 30.14 in 10.0 mi South 4.6 mph - N/A   Clear
8:15 PM 71.6 °F 51.1 °F 48% 30.14 in 10.0 mi SSE 3.5 mph - N/A   Clear
8:35 PM 70.2 °F 51.3 °F 51% 30.15 in 10.0 mi SSE 3.5 mph - N/A   Clear
8:55 PM 68.4 °F 51.8 °F 55% 30.15 in 10.0 mi Calm Calm - N/A   Clear
9:15 PM 66.4 °F 52.0 °F 60% 30.15 in 10.0 mi Calm Calm - N/A   Clear
9:35 PM 65.5 °F 51.8 °F 61% 30.16 in 10.0 mi Calm Calm - N/A   Clear
9:55 PM 62.4 °F 52.0 °F 69% 30.17 in 10.0 mi Calm Calm - N/A   Clear
10:15 PM 60.1 °F 52.7 °F 77% 30.18 in 10.0 mi Calm Calm - N/A   Clear
10:35 PM 60.8 °F 52.5 °F 74% 30.18 in 10.0 mi Calm Calm - N/A   Clear
11:15 PM 58.6 °F 52.9 °F 81% 30.18 in 10.0 mi Calm Calm - N/A   Clear
11:35 PM 57.4 °F 52.3 °F 83% 30.18 in 10.0 mi Calm Calm - N/A   Clear
11:55 PM 56.5 °F 51.8 °F 84% 30.18 in 10.0 mi Calm Calm - N/A   Clear